Time;durP1;ratioP1;P1;durP2;ratioP2;P2;SDS_P1;SDS_P2;PMS_P1;PMS_P2;Temp;Humidity;BMP_temperature;BMP_pressure;BME280_temperature;BME280_humidity;BME280_pressure;Samples;Min_cycle;Max_cycle;Signal;HPM_P1;HPM_P2
2022/03/23 00:00:50;;;;;;;26.55;17.10;;;6.60;70.40;;;;;;4341334;28;10001159;-71
2022/03/23 00:03:16;;;;;;;32.97;20.25;;;6.50;71.50;;;;;;5049929;28;20509;-71
2022/03/23 00:05:42;;;;;;;29.55;19.58;;;6.40;71.70;;;;;;5047069;28;20112;-71
2022/03/23 00:08:08;;;;;;;28.45;18.67;;;6.30;72.30;;;;;;5048038;28;20112;-70
2022/03/23 00:10:37;;;;;;;26.35;17.15;;;6.20;72.90;;;;;;5052351;28;20472;-71
2022/03/23 00:13:04;;;;;;;23.52;15.65;;;6.10;73.10;;;;;;5061032;28;20526;-71
2022/03/23 00:15:30;;;;;;;24.13;16.20;;;6.00;73.10;;;;;;5047502;28;20111;-71
2022/03/23 00:17:57;;;;;;;23.65;15.88;;;5.90;73.60;;;;;;5045581;28;20060;-71
2022/03/23 00:20:24;;;;;;;25.02;15.93;;;5.80;74.10;;;;;;5048956;28;20370;-71
2022/03/23 00:22:51;;;;;;;24.63;16.55;;;5.80;74.50;;;;;;5048710;28;20544;-71
2022/03/23 00:25:17;;;;;;;24.95;16.05;;;5.70;74.60;;;;;;5046361;28;20033;-71
2022/03/23 00:27:42;;;;;;;24.63;15.48;;;5.70;74.80;;;;;;5049242;28;20499;-71
2022/03/23 00:30:09;;;;;;;23.67;16.30;;;5.70;75.10;;;;;;5050148;28;20035;-70
2022/03/23 00:32:35;;;;;;;24.77;15.85;;;5.60;75.40;;;;;;5052142;28;20044;-71
2022/03/23 00:35:02;;;;;;;28.48;17.05;;;5.60;75.70;;;;;;5024416;28;20030;-70
2022/03/23 00:37:27;;;;;;;25.80;16.88;;;5.50;75.80;;;;;;5019490;28;20416;-71
2022/03/23 00:39:53;;;;;;;30.13;18.17;;;5.50;76.10;;;;;;5028939;28;20022;-71
2022/03/23 00:42:19;;;;;;;29.10;18.33;;;5.50;76.50;;;;;;5022251;28;20036;-70
2022/03/23 00:44:45;;;;;;;31.48;18.65;;;5.60;76.40;;;;;;5027341;28;20025;-70
2022/03/23 00:47:10;;;;;;;28.98;17.92;;;5.70;76.30;;;;;;5021630;28;20037;-70
2022/03/23 00:49:37;;;;;;;28.15;17.23;;;5.70;75.90;;;;;;5028713;28;20104;-70
2022/03/23 00:52:06;;;;;;;30.08;17.50;;;5.70;76.60;;;;;;5025812;28;20026;-70
2022/03/23 00:54:34;;;;;;;25.35;16.65;;;5.60;76.40;;;;;;5015298;28;20041;-70
2022/03/23 00:57:07;;;;;;;25.80;16.52;;;5.50;76.20;;;;;;5021193;28;20025;-71
2022/03/23 00:59:34;;;;;;;24.65;15.85;;;5.50;76.70;;;;;;5029832;28;20017;-70
2022/03/23 01:02:00;;;;;;;23.25;15.15;;;5.40;76.50;;;;;;5028549;28;20107;-71
2022/03/23 01:04:26;;;;;;;25.10;16.10;;;5.40;76.60;;;;;;5031754;28;20139;-71
2022/03/23 01:06:52;;;;;;;26.48;16.20;;;5.30;77.10;;;;;;5015080;28;20030;-71
2022/03/23 01:09:23;;;;;;;29.17;18.02;;;5.20;77.00;;;;;;5033673;28;20025;-70
2022/03/23 01:11:53;;;;;;;28.85;18.52;;;5.20;77.30;;;;;;5025177;28;20048;-70
2022/03/23 01:14:22;;;;;;;30.73;19.13;;;5.10;77.70;;;;;;5008597;28;20135;-71
2022/03/23 01:16:49;;;;;;;33.00;19.98;;;5.00;78.50;;;;;;5029166;28;20390;-71
2022/03/23 01:19:17;;;;;;;35.63;20.48;;;4.90;79.10;;;;;;5039136;28;20043;-71
2022/03/23 01:21:44;;;;;;;30.65;19.95;;;4.80;79.60;;;;;;5016230;28;20052;-71
2022/03/23 01:24:10;;;;;;;29.85;18.52;;;4.70;79.90;;;;;;5014652;28;20175;-71
2022/03/23 01:26:36;;;;;;;29.42;18.30;;;4.60;80.60;;;;;;5015164;28;20025;-71
2022/03/23 01:29:03;;;;;;;29.45;18.70;;;4.60;81.40;;;;;;5033611;28;20049;-71
2022/03/23 01:31:29;;;;;;;27.27;18.58;;;4.60;82.20;;;;;;5044556;28;20079;-71
2022/03/23 01:33:59;;;;;;;26.50;16.60;;;4.60;82.40;;;;;;5037311;28;20491;-71
2022/03/23 01:36:30;;;;;;;30.75;18.15;;;4.50;82.70;;;;;;5049167;28;20469;-71
2022/03/23 01:38:56;;;;;;;29.35;17.73;;;4.50;83.30;;;;;;5041517;28;20033;-71
2022/03/23 01:41:23;;;;;;;30.92;17.90;;;4.40;83.50;;;;;;5041717;28;20026;-71
2022/03/23 01:43:49;;;;;;;25.55;17.42;;;4.40;83.80;;;;;;5051870;28;20025;-71
2022/03/23 01:46:19;;;;;;;25.85;17.10;;;4.30;84.10;;;;;;5034959;28;20028;-71
2022/03/23 01:48:46;;;;;;;26.88;16.83;;;4.30;84.20;;;;;;5048017;28;20028;-71
2022/03/23 01:51:13;;;;;;;25.13;16.15;;;4.30;83.90;;;;;;5043951;28;20104;-71
2022/03/23 01:53:40;;;;;;;29.83;16.63;;;4.30;83.70;;;;;;5047250;28;20028;-71
2022/03/23 01:56:08;;;;;;;25.83;16.52;;;4.30;83.70;;;;;;5037878;28;20036;-71
2022/03/23 01:58:34;;;;;;;26.20;16.23;;;4.30;84.00;;;;;;5031149;28;20036;-71
2022/03/23 02:01:00;;;;;;;22.83;15.25;;;4.30;83.80;;;;;;5037862;28;20726;-71
2022/03/23 02:03:26;;;;;;;25.50;16.00;;;4.30;84.10;;;;;;5053243;28;20165;-71
2022/03/23 02:05:52;;;;;;;24.15;15.77;;;4.20;84.70;;;;;;5042986;28;20668;-71
2022/03/23 02:08:17;;;;;;;29.63;17.30;;;4.10;84.50;;;;;;5046326;28;20070;-71
2022/03/23 02:10:44;;;;;;;27.10;16.13;;;4.10;84.40;;;;;;5055312;28;20025;-71
2022/03/23 02:13:11;;;;;;;25.25;16.27;;;4.10;85.00;;;;;;5038076;28;20120;-71
2022/03/23 02:15:37;;;;;;;28.73;18.08;;;4.00;85.80;;;;;;5039492;28;20033;-71
2022/03/23 02:18:03;;;;;;;30.27;19.45;;;4.00;86.80;;;;;;5036640;28;20035;-71
2022/03/23 02:20:30;;;;;;;29.27;18.45;;;3.90;88.00;;;;;;5035127;28;20029;-71
2022/03/23 02:22:56;;;;;;;29.90;18.60;;;3.90;88.50;;;;;;5036431;28;20455;-71
2022/03/23 02:25:25;;;;;;;31.20;19.83;;;3.80;89.30;;;;;;5038765;28;20029;-71
2022/03/23 02:27:53;;;;;;;29.92;19.10;;;3.70;89.50;;;;;;5050032;28;20040;-71
2022/03/23 02:30:18;;;;;;;31.80;19.27;;;3.60;90.10;;;;;;5038719;28;20029;-71
2022/03/23 02:32:45;;;;;;;30.30;18.60;;;3.70;91.10;;;;;;5045882;28;20530;-71
2022/03/23 02:35:14;;;;;;;28.85;18.70;;;3.90;91.30;;;;;;5036584;28;20060;-71
2022/03/23 02:37:40;;;;;;;31.65;18.95;;;4.00;90.90;;;;;;5038255;28;20035;-71
2022/03/23 02:40:08;;;;;;;30.10;18.92;;;4.20;90.70;;;;;;5044506;28;20080;-70
2022/03/23 02:42:34;;;;;;;29.13;19.38;;;4.20;90.60;;;;;;5044491;28;20514;-71
2022/03/23 02:44:59;;;;;;;27.38;17.60;;;4.20;90.40;;;;;;5048902;28;20158;-71
2022/03/23 02:47:25;;;;;;;27.00;17.63;;;4.10;90.50;;;;;;5051200;28;20038;-70
2022/03/23 02:49:51;;;;;;;25.80;17.42;;;4.00;90.90;;;;;;5038281;28;20722;-70
2022/03/23 02:52:16;;;;;;;29.60;17.95;;;3.90;91.20;;;;;;5037708;28;20087;-70
2022/03/23 03:03:48;;;;;;;26.67;17.05;;;4.00;92.30;;;;;;5034260;28;20048;-70
2022/03/23 03:06:13;;;;;;;30.02;17.92;;;3.80;92.20;;;;;;5041049;28;20385;-70
2022/03/23 03:08:45;;;;;;;25.55;17.48;;;3.70;92.60;;;;;;5046700;28;20021;-70
2022/03/23 03:11:10;;;;;;;26.98;17.83;;;3.60;92.90;;;;;;5057569;28;20622;-70
2022/03/23 03:13:36;;;;;;;27.63;17.48;;;3.50;93.20;;;;;;5045312;28;20127;-70
2022/03/23 03:16:02;;;;;;;25.88;17.13;;;3.30;93.60;;;;;;5049545;28;20370;-69
2022/03/23 03:18:31;;;;;;;25.88;17.05;;;3.30;93.90;;;;;;5043066;28;20033;-70
2022/03/23 03:20:57;;;;;;;26.25;17.38;;;3.20;94.40;;;;;;5040324;28;20104;-70
2022/03/23 03:23:23;;;;;;;28.55;18.08;;;3.20;94.80;;;;;;5041996;28;20116;-70
2022/03/23 03:25:49;;;;;;;27.02;18.15;;;3.10;94.90;;;;;;5041961;28;20023;-70
2022/03/23 03:28:15;;;;;;;26.83;17.02;;;3.10;95.50;;;;;;5052839;28;20041;-70
2022/03/23 03:30:41;;;;;;;27.75;18.08;;;3.10;95.70;;;;;;5047723;28;20033;-70
2022/03/23 03:33:06;;;;;;;27.48;18.30;;;3.00;96.00;;;;;;5049706;28;20036;-70
2022/03/23 03:35:32;;;;;;;28.92;18.23;;;3.00;96.10;;;;;;5041299;28;20060;-71
2022/03/23 03:37:58;;;;;;;28.02;18.70;;;3.00;96.20;;;;;;5046627;28;20036;-71
2022/03/23 03:40:24;;;;;;;31.30;18.75;;;3.00;96.30;;;;;;5049451;28;20036;-71
2022/03/23 03:42:50;;;;;;;28.67;19.35;;;2.90;96.80;;;;;;5059796;28;20048;-71
2022/03/23 03:45:15;;;;;;;27.95;18.40;;;2.90;97.40;;;;;;5057075;28;20079;-71
2022/03/23 03:47:41;;;;;;;28.88;18.90;;;2.90;98.00;;;;;;5042275;28;20032;-71
2022/03/23 03:50:07;;;;;;;28.38;18.77;;;2.90;98.70;;;;;;5051062;28;20068;-71
2022/03/23 03:52:32;;;;;;;28.27;18.02;;;2.90;99.40;;;;;;5052828;28;20496;-71
2022/03/23 03:54:58;;;;;;;27.73;17.33;;;2.90;99.60;;;;;;5041721;28;20035;-71
2022/03/23 03:57:24;;;;;;;27.70;17.52;;;2.90;99.60;;;;;;5049539;28;20025;-70
2022/03/23 03:59:49;;;;;;;25.52;17.02;;;2.80;99.80;;;;;;5054338;28;20052;-71
2022/03/23 04:02:15;;;;;;;26.92;17.73;;;2.80;99.90;;;;;;5054147;28;20058;-70
2022/03/23 04:04:40;;;;;;;29.75;19.63;;;2.70;99.90;;;;;;5040868;28;20032;-71
2022/03/23 04:07:06;;;;;;;30.48;18.70;;;2.70;99.90;;;;;;5047039;28;20032;-70
2022/03/23 04:09:31;;;;;;;33.17;20.67;;;2.70;99.90;;;;;;5048818;28;20526;-71
2022/03/23 04:11:57;;;;;;;27.92;18.15;;;2.60;99.90;;;;;;5041452;28;20032;-70
2022/03/23 04:14:23;;;;;;;27.75;17.92;;;2.60;99.90;;;;;;5029177;28;20548;-70
2022/03/23 04:16:48;;;;;;;27.23;18.27;;;2.50;99.90;;;;;;5055660;28;20055;-70
2022/03/23 04:19:14;;;;;;;34.03;20.17;;;2.50;99.90;;;;;;5053123;28;20100;-70
2022/03/23 04:21:39;;;;;;;32.78;20.02;;;2.50;99.90;;;;;;5052457;28;20472;-70
2022/03/23 04:24:05;;;;;;;33.88;19.63;;;2.40;99.90;;;;;;5049853;28;20039;-70
2022/03/23 04:26:31;;;;;;;33.40;21.02;;;2.40;99.90;;;;;;5036497;28;20033;-69
2022/03/23 04:28:57;;;;;;;34.95;21.33;;;2.30;99.90;;;;;;5043693;28;20049;-70
2022/03/23 04:31:22;;;;;;;33.47;21.42;;;2.30;99.90;;;;;;5043828;28;20026;-71
2022/03/23 04:33:48;;;;;;;38.72;21.17;;;2.30;99.90;;;;;;5035025;28;20119;-70
2022/03/23 04:36:13;;;;;;;32.10;19.60;;;2.20;99.90;;;;;;5037333;28;20024;-69
2022/03/23 04:38:39;;;;;;;29.92;19.20;;;2.10;99.90;;;;;;5043911;28;20032;-70
2022/03/23 04:41:05;;;;;;;28.40;18.80;;;2.10;99.90;;;;;;5060953;28;20120;-70
2022/03/23 04:43:31;;;;;;;29.73;18.92;;;2.10;99.90;;;;;;5053839;28;20020;-69
2022/03/23 04:45:57;;;;;;;28.42;18.42;;;2.10;99.90;;;;;;5034735;28;20048;-70
2022/03/23 04:48:23;;;;;;;27.40;17.88;;;2.10;99.90;;;;;;5039079;28;20703;-70
2022/03/23 04:50:48;;;;;;;28.40;17.15;;;2.10;99.90;;;;;;5051558;28;20393;-70
2022/03/23 04:53:15;;;;;;;32.47;19.40;;;2.10;99.90;;;;;;5052180;28;20111;-70
2022/03/23 04:55:42;;;;;;;37.45;21.30;;;2.10;99.90;;;;;;5031806;28;20038;-69
2022/03/23 04:58:07;;;;;;;35.72;20.83;;;2.10;99.90;;;;;;5040339;28;20082;-69
2022/03/23 05:00:34;;;;;;;33.13;21.08;;;2.10;99.90;;;;;;5050348;28;20028;-69
2022/03/23 05:03:00;;;;;;;35.17;22.23;;;2.10;99.90;;;;;;5052265;28;20035;-69
2022/03/23 05:05:26;;;;;;;41.10;24.05;;;2.00;99.90;;;;;;5029713;28;20017;-69
2022/03/23 05:07:52;;;;;;;42.08;25.83;;;2.00;99.90;;;;;;5038617;28;20033;-69
2022/03/23 05:10:18;;;;;;;47.83;29.33;;;1.90;99.90;;;;;;5036792;28;20061;-70
2022/03/23 05:12:45;;;;;;;46.70;28.02;;;1.80;99.90;;;;;;5044508;28;20159;-69
2022/03/23 05:15:12;;;;;;;43.60;26.15;;;1.70;99.90;;;;;;5030298;28;20029;-70
2022/03/23 05:17:38;;;;;;;40.20;23.30;;;1.70;99.90;;;;;;5054771;28;20028;-70
2022/03/23 05:20:06;;;;;;;36.25;21.85;;;1.70;99.90;;;;;;5044691;28;20036;-70
2022/03/23 05:22:32;;;;;;;34.80;21.42;;;1.70;99.90;;;;;;5042375;28;20032;-70
2022/03/23 05:24:58;;;;;;;36.25;22.30;;;1.70;99.90;;;;;;5050238;28;20028;-71
2022/03/23 05:27:24;;;;;;;36.42;20.92;;;1.70;99.90;;;;;;5030983;28;21349;-70
2022/03/23 05:29:50;;;;;;;37.88;20.92;;;1.70;99.90;;;;;;5048115;28;20381;-71
2022/03/23 05:32:19;;;;;;;32.10;19.70;;;1.80;99.90;;;;;;5037280;28;20032;-71
2022/03/23 05:34:50;;;;;;;33.03;19.58;;;1.80;99.90;;;;;;5017341;28;20079;-70
2022/03/23 05:37:19;;;;;;;29.27;19.05;;;1.80;99.90;;;;;;5044202;28;20492;-70
2022/03/23 05:39:45;;;;;;;30.67;19.42;;;1.90;99.90;;;;;;5033755;28;20100;-70
2022/03/23 05:42:12;;;;;;;28.58;17.85;;;1.90;99.90;;;;;;5036996;28;20017;-70
2022/03/23 05:44:37;;;;;;;30.63;17.90;;;1.90;99.90;;;;;;5032396;28;20044;-70
2022/03/23 05:47:05;;;;;;;29.70;17.92;;;1.90;99.90;;;;;;5023430;28;20413;-70
2022/03/23 05:49:32;;;;;;;30.23;19.27;;;1.90;99.90;;;;;;5028370;28;20028;-70
2022/03/23 05:51:57;;;;;;;33.95;21.02;;;1.90;99.90;;;;;;5029435;28;20025;-70
2022/03/23 05:54:23;;;;;;;39.58;22.38;;;1.90;99.90;;;;;;5028589;28;20040;-70
2022/03/23 05:56:50;;;;;;;38.60;22.70;;;1.90;99.90;;;;;;5036282;28;20108;-70
2022/03/23 05:59:17;;;;;;;37.15;22.77;;;1.90;99.90;;;;;;5037976;28;20029;-70
2022/03/23 06:01:42;;;;;;;38.72;22.77;;;1.90;99.90;;;;;;5028864;28;20420;-70
2022/03/23 06:04:08;;;;;;;35.70;22.90;;;1.90;99.90;;;;;;5033561;28;20029;-71
2022/03/23 06:06:34;;;;;;;36.65;22.58;;;1.90;99.90;;;;;;5040205;28;20013;-71
2022/03/23 06:08:59;;;;;;;44.88;25.55;;;1.90;99.90;;;;;;5033588;28;20056;-70
2022/03/23 06:11:25;;;;;;;43.60;25.48;;;1.80;99.90;;;;;;5039146;28;20025;-70
2022/03/23 06:13:51;;;;;;;41.35;24.65;;;1.90;99.90;;;;;;5039532;28;20059;-71
2022/03/23 06:16:16;;;;;;;41.22;23.45;;;1.90;99.90;;;;;;5044642;28;20017;-71
2022/03/23 06:18:42;;;;;;;41.15;23.77;;;1.80;99.90;;;;;;5046223;28;20029;-70
2022/03/23 06:21:08;;;;;;;38.28;23.77;;;1.80;99.90;;;;;;5037223;28;20237;-70
2022/03/23 06:23:34;;;;;;;40.28;23.17;;;1.80;99.90;;;;;;5043109;28;20666;-70
2022/03/23 06:26:01;;;;;;;38.08;22.20;;;1.80;99.90;;;;;;5044152;28;20476;-70
2022/03/23 06:28:27;;;;;;;39.00;23.02;;;1.90;99.90;;;;;;5032823;28;20045;-70
2022/03/23 06:30:53;;;;;;;35.30;21.77;;;1.90;99.90;;;;;;5031820;28;20029;-70
2022/03/23 06:33:19;;;;;;;37.08;21.38;;;1.90;99.90;;;;;;5047011;28;20424;-70
2022/03/23 06:35:45;;;;;;;36.95;21.27;;;1.90;99.90;;;;;;5030646;28;20036;-70
2022/03/23 06:38:12;;;;;;;34.10;20.00;;;2.00;99.90;;;;;;5037149;28;20425;-70
2022/03/23 06:40:37;;;;;;;32.50;20.27;;;2.00;99.90;;;;;;5048360;28;20032;-70
2022/03/23 06:43:03;;;;;;;30.10;20.42;;;2.10;99.90;;;;;;5042667;28;20449;-70
2022/03/23 06:45:29;;;;;;;33.53;20.50;;;2.20;99.90;;;;;;5035153;28;20600;-70
2022/03/23 06:47:55;;;;;;;33.08;21.13;;;2.20;99.90;;;;;;5040668;28;20033;-71
2022/03/23 06:50:21;;;;;;;33.17;21.15;;;2.30;99.90;;;;;;5041933;28;20033;-71
2022/03/23 06:52:47;;;;;;;32.28;20.88;;;2.30;99.90;;;;;;5033242;28;20216;-71
2022/03/23 06:55:12;;;;;;;36.15;21.90;;;2.40;99.90;;;;;;5042120;28;20036;-71
2022/03/23 06:57:38;;;;;;;34.10;21.40;;;2.50;99.90;;;;;;5045014;28;20397;-71
2022/03/23 07:00:12;;;;;;;32.22;21.08;;;2.50;99.90;;;;;;5038018;28;20394;-71
2022/03/23 07:02:40;;;;;;;34.78;22.02;;;2.60;99.90;;;;;;5044036;28;20400;-71
2022/03/23 07:05:06;;;;;;;34.65;21.35;;;2.60;99.90;;;;;;5039027;28;20060;-71
2022/03/23 07:07:32;;;;;;;34.38;21.48;;;2.70;99.90;;;;;;5029116;28;20014;-71
2022/03/23 07:09:58;;;;;;;34.03;21.90;;;2.80;99.90;;;;;;5044622;28;20091;-71
2022/03/23 07:12:23;;;;;;;35.55;21.67;;;2.80;99.90;;;;;;5029872;28;20028;-71
2022/03/23 07:14:49;;;;;;;34.65;21.75;;;3.00;99.90;;;;;;5038584;28;20032;-71
2022/03/23 07:17:16;;;;;;;34.38;22.27;;;3.10;99.90;;;;;;5034265;28;20031;-71
2022/03/23 07:19:42;;;;;;;37.65;21.73;;;3.20;99.90;;;;;;5042978;28;20029;-71
2022/03/23 07:22:08;;;;;;;34.55;22.17;;;3.30;99.90;;;;;;5035128;28;20025;-71
2022/03/23 07:24:33;;;;;;;34.95;21.77;;;3.30;99.90;;;;;;5045073;28;20116;-71
2022/03/23 07:27:00;;;;;;;30.10;20.38;;;3.40;99.90;;;;;;5040447;28;20017;-71
2022/03/23 07:29:25;;;;;;;31.77;20.92;;;3.50;99.90;;;;;;5033494;28;20050;-71
2022/03/23 07:31:51;;;;;;;32.70;20.48;;;3.60;99.90;;;;;;5052540;28;20515;-71
2022/03/23 07:34:19;;;;;;;34.83;22.00;;;3.70;99.90;;;;;;5046350;28;20481;-71
2022/03/23 07:36:48;;;;;;;42.10;24.70;;;3.70;99.90;;;;;;5036731;28;20029;-71
2022/03/23 07:39:20;;;;;;;38.50;23.85;;;3.80;99.90;;;;;;5036045;28;20032;-71
2022/03/23 07:41:52;;;;;;;39.40;23.40;;;3.90;99.90;;;;;;5045100;28;20082;-71
2022/03/23 07:44:18;;;;;;;41.20;23.40;;;4.00;99.90;;;;;;5038672;28;20040;-71
2022/03/23 07:46:45;;;;;;;43.35;25.15;;;4.10;99.90;;;;;;5026757;28;20030;-71
2022/03/23 07:49:11;;;;;;;40.47;24.05;;;4.10;99.90;;;;;;5036886;28;20035;-71
2022/03/23 07:51:37;;;;;;;38.63;25.30;;;4.20;99.90;;;;;;5042053;28;20096;-71
2022/03/23 07:54:03;;;;;;;38.30;24.02;;;4.30;99.90;;;;;;5042500;28;20120;-71
2022/03/23 07:56:28;;;;;;;38.78;23.65;;;4.40;99.90;;;;;;5031693;28;20037;-71
2022/03/23 07:58:54;;;;;;;35.47;23.02;;;4.50;99.90;;;;;;5043055;28;20017;-71
2022/03/23 08:01:20;;;;;;;39.47;23.58;;;4.70;99.90;;;;;;5042485;28;20455;-71
2022/03/23 08:03:46;;;;;;;37.65;22.52;;;4.90;99.90;;;;;;5038570;28;20061;-70
2022/03/23 08:06:12;;;;;;;33.92;21.60;;;5.00;99.90;;;;;;5059013;28;20123;-71
2022/03/23 08:08:37;;;;;;;34.13;21.77;;;5.10;99.90;;;;;;5036946;28;20021;-71
2022/03/23 08:11:03;;;;;;;33.80;22.15;;;5.30;99.90;;;;;;5028887;28;20103;-71
2022/03/23 08:13:29;;;;;;;31.70;21.65;;;5.50;99.90;;;;;;5056363;28;20025;-71
2022/03/23 08:15:55;;;;;;;32.28;20.80;;;5.60;99.90;;;;;;5045717;28;20547;-71
2022/03/23 08:18:21;;;;;;;29.83;19.98;;;5.80;99.90;;;;;;5037429;28;20042;-71
2022/03/23 08:20:48;;;;;;;33.35;20.60;;;6.00;99.90;;;;;;5031347;28;20063;-70
2022/03/23 08:23:16;;;;;;;30.42;20.88;;;6.30;99.90;;;;;;5035946;28;20041;-71
2022/03/23 08:25:45;;;;;;;33.63;21.75;;;6.40;99.90;;;;;;5041070;28;20308;-71
2022/03/23 08:28:12;;;;;;;31.17;20.58;;;6.60;99.90;;;;;;5044690;28;20128;-71
2022/03/23 08:30:38;;;;;;;32.80;20.90;;;6.80;99.90;;;;;;5029776;28;20017;-71
2022/03/23 08:33:04;;;;;;;34.15;21.35;;;6.90;99.90;;;;;;5040028;28;20047;-71
2022/03/23 08:35:31;;;;;;;34.08;21.48;;;7.10;99.90;;;;;;5041374;28;20309;-71
2022/03/23 08:37:56;;;;;;;33.55;21.67;;;7.40;99.90;;;;;;5045316;28;20454;-71
2022/03/23 08:40:22;;;;;;;31.30;21.17;;;7.40;99.90;;;;;;5052030;28;20139;-71
2022/03/23 08:42:48;;;;;;;32.22;21.00;;;;;;;;;;5050170;28;20512;-71
2022/03/23 08:45:15;;;;;;;30.42;21.00;;;8.00;99.90;;;;;;5051780;28;20528;-72
2022/03/23 08:47:42;;;;;;;31.13;20.35;;;8.00;99.90;;;;;;5028037;28;20484;-71
2022/03/23 08:50:10;;;;;;;31.27;21.88;;;8.00;99.90;;;;;;5027745;28;20101;-71
2022/03/23 08:52:37;;;;;;;33.40;22.08;;;8.40;99.90;;;;;;5031004;28;20126;-70
2022/03/23 08:55:05;;;;;;;31.23;21.10;;;8.50;99.90;;;;;;5039819;28;20389;-71
2022/03/23 08:57:31;;;;;;;34.75;21.13;;;8.70;99.90;;;;;;5051167;28;20039;-71
2022/03/23 08:59:57;;;;;;;33.03;20.95;;;;;;;;;;5049967;28;20033;-71
2022/03/23 09:02:23;;;;;;;34.00;21.75;;;;;;;;;;5044880;28;20495;-71
2022/03/23 09:04:49;;;;;;;33.40;21.60;;;9.50;99.90;;;;;;5036393;28;20425;-71
2022/03/23 09:07:15;;;;;;;29.45;20.48;;;9.50;99.60;;;;;;5043003;28;20049;-71
2022/03/23 09:09:40;;;;;;;32.25;21.05;;;9.60;99.50;;;;;;5041901;28;20018;-71
2022/03/23 09:12:06;;;;;;;32.10;20.65;;;9.70;98.80;;;;;;5038863;28;20035;-71
2022/03/23 09:14:32;;;;;;;29.45;20.13;;;9.80;98.70;;;;;;5039502;28;20462;-71
2022/03/23 09:16:58;;;;;;;31.15;21.58;;;10.10;99.90;;;;;;5047706;28;20029;-71
2022/03/23 09:19:23;;;;;;;32.35;21.05;;;10.30;98.50;;;;;;5036182;28;20025;-71
2022/03/23 09:21:50;;;;;;;29.02;19.63;;;10.40;98.30;;;;;;5027600;28;20033;-71
2022/03/23 09:24:19;;;;;;;32.17;20.05;;;10.40;97.00;;;;;;5040028;28;20033;-71
2022/03/23 09:26:45;;;;;;;29.63;20.38;;;10.60;96.50;;;;;;5038835;28;20055;-71
2022/03/23 09:29:11;;;;;;;29.63;20.27;;;10.80;96.10;;;;;;5042000;28;20063;-70
2022/03/23 09:31:37;;;;;;;33.30;20.90;;;10.90;97.40;;;;;;5031798;28;20017;-70
2022/03/23 09:34:03;;;;;;;29.65;20.83;;;11.00;99.90;;;;;;5034487;28;20280;-71
2022/03/23 09:39:14;;;;;;;28.42;20.92;;;11.10;99.90;;;;;;5052044;28;20039;-71
2022/03/23 09:41:41;;;;;;;29.55;21.05;;;11.30;99.90;;;;;;5045467;28;20129;-71
2022/03/23 09:44:07;;;;;;;33.63;20.35;;;11.50;99.90;;;;;;5054237;28;20044;-71
2022/03/23 09:46:33;;;;;;;28.63;19.38;;;11.60;99.20;;;;;;5047266;28;20033;-71
2022/03/23 09:48:59;;;;;;;32.58;21.42;;;11.70;99.20;;;;;;5039426;28;20663;-72
2022/03/23 09:51:26;;;;;;;29.88;20.42;;;11.80;99.60;;;;;;5027777;28;20029;-71
2022/03/23 09:53:53;;;;;;;30.45;20.27;;;11.90;99.70;;;;;;5026168;28;20554;-71
2022/03/23 09:56:19;;;;;;;30.77;20.08;;;12.10;99.10;;;;;;5027910;28;20072;-71
2022/03/23 09:58:44;;;;;;;28.95;19.50;;;12.30;99.90;;;;;;5045692;28;20484;-71
2022/03/23 10:01:34;;;;;;;30.08;21.52;;;12.60;99.90;;;;;;5036427;28;20865;-71
2022/03/23 10:04:06;;;;;;;33.08;21.00;;;12.60;99.90;;;;;;5002829;28;20041;-71
2022/03/23 10:07:04;;;;;;;29.35;20.45;;;12.70;99.90;;;;;;5027739;28;20087;-71
2022/03/23 10:09:48;;;;;;;26.42;19.23;;;12.60;90.10;;;;;;5028866;28;20108;-71
2022/03/23 10:12:38;;;;;;;27.50;19.85;;;12.80;86.90;;;;;;5042210;28;20508;-71
2022/03/23 10:15:32;;;;;;;31.15;20.48;;;12.90;88.40;;;;;;5028774;28;20029;-71
2022/03/23 10:18:26;;;;;;;26.63;20.40;;;13.30;99.90;;;;;;5015670;28;20032;-71
2022/03/23 10:20:51;;;;;;;27.77;20.63;;;13.30;99.90;;;;;;5041025;28;20037;-71
2022/03/23 10:23:22;;;;;;;30.08;20.00;;;13.40;99.80;;;;;;5039673;28;20032;-71
2022/03/23 10:25:49;;;;;;;27.30;19.85;;;13.60;97.10;;;;;;5049372;28;20033;-70
2022/03/23 10:28:15;;;;;;;27.90;20.77;;;13.90;90.90;;;;;;5037035;28;20049;-70
2022/03/23 10:30:43;;;;;;;29.92;19.83;;;14.00;79.90;;;;;;5037853;28;20024;-71
2022/03/23 10:33:22;;;;;;;26.73;20.15;;;14.10;80.30;;;;;;5023420;28;20036;-71
2022/03/23 10:35:49;;;;;;;28.70;19.88;;;14.20;78.70;;;;;;5022302;28;20044;-71
2022/03/23 10:38:19;;;;;;;26.10;18.70;;;14.20;77.10;;;;;;5032237;28;20025;-71
2022/03/23 10:40:48;;;;;;;25.20;18.95;;;14.30;73.60;;;;;;5040382;28;20036;-71
2022/03/23 10:43:22;;;;;;;26.67;19.30;;;14.40;72.20;;;;;;5030162;28;20037;-71
2022/03/23 10:45:48;;;;;;;26.73;18.48;;;14.50;71.10;;;;;;5036193;28;20052;-71
2022/03/23 10:48:15;;;;;;;28.48;19.05;;;;;;;;;;5040791;28;20768;-71
2022/03/23 10:50:52;;;;;;;29.00;19.33;;;14.80;67.50;;;;;;4335841;28;10001370;-71
2022/03/23 10:53:33;;;;;;;30.23;18.10;;;15.00;66.40;;;;;;5024111;28;20037;-71
2022/03/23 10:56:00;;;;;;;25.40;17.85;;;15.10;63.70;;;;;;5024246;28;20252;-71
2022/03/23 10:58:27;;;;;;;25.25;18.90;;;15.20;61.20;;;;;;5029551;28;20017;-71
2022/03/23 11:01:05;;;;;;;27.40;18.58;;;15.40;63.90;;;;;;5025641;28;20042;-71
2022/03/23 11:03:35;;;;;;;27.05;18.40;;;15.40;59.40;;;;;;5024791;28;20378;-71
2022/03/23 11:06:01;;;;;;;24.60;18.63;;;15.50;58.80;;;;;;5032761;28;20048;-71
2022/03/23 11:08:27;;;;;;;25.52;18.30;;;15.60;59.10;;;;;;5029890;28;20056;-71
2022/03/23 11:16:39;;;;;;;28.55;17.05;;;15.90;56.00;;;;;;5037420;28;20045;-72
2022/03/23 11:19:10;;;;;;;20.17;15.23;;;16.00;53.30;;;;;;5027910;28;20029;-71
2022/03/23 11:22:05;;;;;;;20.40;15.20;;;16.10;50.00;;;;;;5034216;28;20485;-71
2022/03/23 11:24:41;;;;;;;22.92;17.25;;;16.20;50.10;;;;;;5038455;28;20033;-71
2022/03/23 11:27:10;;;;;;;30.20;18.08;;;16.30;50.00;;;;;;5036229;28;20857;-71
2022/03/23 11:29:37;;;;;;;24.23;17.58;;;16.40;51.20;;;;;;5050226;28;20072;-71
2022/03/23 11:32:08;;;;;;;23.52;17.17;;;16.50;49.90;;;;;;5034596;28;20117;-71
2022/03/23 11:34:36;;;;;;;26.30;17.83;;;16.60;49.80;;;;;;5036523;28;20120;-71
2022/03/23 11:37:07;;;;;;;24.17;17.25;;;16.60;50.30;;;;;;5037348;28;20080;-71
2022/03/23 11:39:34;;;;;;;24.67;16.92;;;16.50;49.50;;;;;;5041634;28;20034;-71
2022/03/23 11:42:02;;;;;;;22.48;16.98;;;16.50;48.40;;;;;;5043869;28;20090;-69
2022/03/23 11:44:28;;;;;;;21.77;16.38;;;16.50;48.80;;;;;;5034597;28;20029;-69
2022/03/23 11:47:07;;;;;;;24.77;17.27;;;16.60;47.90;;;;;;5037629;28;20370;-67
2022/03/23 11:49:46;;;;;;;24.25;16.77;;;16.70;46.30;;;;;;5030593;28;20134;-68
2022/03/23 11:52:15;;;;;;;20.60;15.60;;;;;;;;;;5031466;28;20029;-69
2022/03/23 11:57:48;;;;;;;23.95;16.38;;;17.30;47.30;;;;;;5033619;28;20036;-68
2022/03/23 12:00:18;;;;;;;20.33;15.18;;;17.40;45.90;;;;;;5042167;28;20113;-68
2022/03/23 12:02:44;;;;;;;24.25;15.13;;;17.40;44.80;;;;;;5028324;28;20521;-69
2022/03/23 12:05:29;;;;;;;21.17;15.23;;;17.50;44.00;;;;;;5034880;28;20092;-69
2022/03/23 12:07:55;;;;;;;21.15;15.65;;;17.70;43.20;;;;;;5031208;28;20032;-68
2022/03/23 12:10:23;;;;;;;20.88;15.07;;;17.60;43.10;;;;;;5044039;28;20115;-69
2022/03/23 12:12:48;;;;;;;19.23;14.50;;;17.70;42.20;;;;;;5034185;28;20047;-68
2022/03/23 12:15:22;;;;;;;19.40;14.40;;;17.80;42.30;;;;;;5032115;28;20076;-68
2022/03/23 12:17:54;;;;;;;24.00;14.93;;;17.90;43.80;;;;;;5039122;28;20024;-68
2022/03/23 12:20:32;;;;;;;21.23;14.90;;;17.90;43.20;;;;;;5042400;28;20589;-68
2022/03/23 12:23:25;;;;;;;22.08;15.10;;;18.00;42.70;;;;;;5035532;28;20040;-68
2022/03/23 12:26:03;;;;;;;19.85;15.23;;;18.00;42.10;;;;;;5026864;28;20022;-68
2022/03/23 12:28:34;;;;;;;19.95;13.77;;;18.00;41.40;;;;;;5042266;28;20044;-68
2022/03/23 12:31:09;;;;;;;18.85;12.60;;;18.10;41.70;;;;;;5034891;28;20028;-68
2022/03/23 12:33:59;;;;;;;17.70;13.57;;;18.20;39.90;;;;;;5041109;28;21962;-67
2022/03/23 12:36:56;;;;;;;17.25;12.25;;;18.20;39.10;;;;;;5026426;28;20061;-68
2022/03/23 12:39:33;;;;;;;20.48;12.90;;;18.30;38.50;;;;;;5030770;28;20515;-69
2022/03/23 12:42:16;;;;;;;16.13;11.60;;;18.40;37.60;;;;;;5041046;28;20040;-68
2022/03/23 12:44:56;;;;;;;17.50;12.32;;;18.30;37.50;;;;;;5041008;28;20045;-69
2022/03/23 12:47:26;;;;;;;16.17;11.63;;;18.40;37.20;;;;;;5044147;28;20568;-67
2022/03/23 12:58:28;;;;;;;15.15;11.25;;;18.70;39.00;;;;;;5044945;28;20420;-67
2022/03/23 13:01:07;;;;;;;15.55;11.75;;;18.80;37.60;;;;;;5038080;28;20040;-66
2022/03/23 13:03:32;;;;;;;15.48;11.85;;;18.80;37.80;;;;;;5045075;28;20041;-67
2022/03/23 13:05:58;;;;;;;18.08;13.00;;;18.80;37.10;;;;;;5043362;28;20030;-66
2022/03/23 13:08:30;;;;;;;16.58;12.45;;;18.80;37.00;;;;;;5032106;28;20053;-66